Aviation

Port-au-Prince

FTHA31 MTPP 051800
TAF MTPP 051644Z 0518/0618 10022G34KT 9999 FEW028
PROB30 TEMPO 0600/0604 4500 SHRA SCT020CB BKN040
BECMG 0608/0612 VRB02KT 9000 FEW020
TEMPO 0614/0618 09015G25KT=


Cap-Haïtien

FTHA31 MTCH 051800
TAF MTCH 051655Z 0518/0618 01006KT 9000 FEW030
PROB30 TEMPO 0600/0604 4500 SHRA SCT022CB BKN040
BECMG 0608/0612 VRB02KT 9000 FEW020
BECMG 0614/0618 04010KT=